Du har inga inställningar för hoppväder.nu

Hoppväder.nu

Senast uppdaterat 00:10

UTC-tid

2019-06-25 kl. 22:10


Sol och måne

Solen går upp 4:23 och går ner 22:56 (beräknade cirkatider)
Nästa fullmåne blir om 20 dagar (2019-07-16)

METAR

ESMS (Malmö)
(20 minuter sedan)
ESMS 252150Z 12007KT CAVOK 20/14 Q1021=



ESMK (Everöd)
(20 minuter sedan)
ESMK 252150Z AUTO 00000KT 0350 R01/P2000N R19/P2000N FG NCD 15/15 Q1022=



ESTL (Ljungbyhed)
(20 minuter sedan)
ESTL 252150Z AUTO 11005KT 9999 NCD 18/15 Q1021=



EKCH (Köpenhamn)
(20 minuter sedan)
EKCH 252150Z AUTO 14009KT 9999 NCD 21/15 Q1021 NOSIG=



ESTA (Ängelholm)
(20 minuter sedan)
ESTA 252150Z AUTO 13005KT 9999 NCD 18/14 Q1021=



TAF

ESMS (Malmö)
(309 minuter sedan)
ESMS 251701Z 2518/2618 12010KT 9999 SCT020 BECMG 2611/2614 31015KT TEMPO 2614/2618 31015G28KT=



ESMK (Everöd)
ESMK



ESTL (Ljungbyhed)
ESTL



EKCH (Köpenhamn)
(309 minuter sedan)
EKCH 251701Z 2518/2618 14010KT 9999 SCT020 BECMG 2610/2613 31015KT TEMPO 2613/2617 31015G25KT=



ESTA (Ängelholm)
(309 minuter sedan)
ESTA 251701Z 2518/2522 16010KT CAVOK=





Kodnycklar till TAF och METAR






LHP

(Eslöv är område J3c i Hela Område E)

Prognos är inte uppdaterad




Spotting

Hur fungerar spotthjälpen och Vindkartan?

Markvind är ca 0 m/s.



Vindkartan

Senast uppdaterad 00:10




All data kommer från LFV.se